Time;durP1;ratioP1;P1;durP2;ratioP2;P2;SDS_P1;SDS_P2;PMS_P1;PMS_P2;Temp;Humidity;BMP_temperature;BMP_pressure;BME280_temperature;BME280_humidity;BME280_pressure;Samples;Min_cycle;Max_cycle;Signal;HPM_P1;HPM_P2
2023/12/09 00:01:05;;;;;;;31.60;11.17;;;8.20;99.90;;;;;;5089620;28;20029;-71
2023/12/09 00:03:31;;;;;;;22.47;9.73;;;8.10;99.90;;;;;;5096547;28;20016;-70
2023/12/09 00:05:56;;;;;;;38.87;11.17;;;8.20;99.90;;;;;;5096151;28;20024;-70
2023/12/09 00:08:22;;;;;;;31.37;10.33;;;8.20;99.90;;;;;;5099027;28;20020;-70
2023/12/09 00:10:47;;;;;;;29.40;11.50;;;8.20;99.90;;;;;;5100815;28;20020;-70
2023/12/09 00:13:13;;;;;;;30.10;10.97;;;8.20;99.90;;;;;;5098877;28;20058;-70
2023/12/09 00:15:39;;;;;;;28.67;10.80;;;8.20;99.90;;;;;;5104043;28;20054;-70
2023/12/09 00:18:04;;;;;;;27.10;10.70;;;8.20;99.90;;;;;;5098876;28;20032;-70
2023/12/09 00:20:30;;;;;;;35.87;10.93;;;8.20;99.90;;;;;;5095681;28;20032;-70
2023/12/09 00:22:55;;;;;;;32.47;11.60;;;8.20;99.90;;;;;;5103948;28;20027;-70
2023/12/09 00:25:21;;;;;;;29.50;10.57;;;8.20;99.90;;;;;;5105262;28;20024;-70
2023/12/09 00:27:46;;;;;;;30.77;10.10;;;8.20;99.90;;;;;;5102365;28;20052;-70
2023/12/09 00:30:12;;;;;;;27.73;11.20;;;8.30;99.90;;;;;;5102099;28;20102;-70
2023/12/09 00:32:37;;;;;;;29.63;11.53;;;8.30;99.90;;;;;;5102716;28;20110;-70
2023/12/09 00:35:03;;;;;;;34.47;10.90;;;8.30;99.90;;;;;;5103370;28;20032;-70
2023/12/09 00:37:29;;;;;;;25.97;10.80;;;8.20;99.90;;;;;;5099271;28;20119;-70
2023/12/09 00:39:55;;;;;;;25.40;9.60;;;8.30;99.90;;;;;;5102481;28;20039;-70
2023/12/09 00:42:20;;;;;;;30.27;10.37;;;8.30;99.90;;;;;;5097834;28;20044;-70
2023/12/09 00:44:46;;;;;;;20.90;9.17;;;8.30;99.90;;;;;;5096831;28;20065;-70
2023/12/09 00:47:11;;;;;;;27.10;10.43;;;8.20;99.90;;;;;;5091776;28;20156;-70
2023/12/09 00:49:37;;;;;;;31.53;10.00;;;8.20;99.90;;;;;;5104346;28;20141;-70
2023/12/09 00:52:02;;;;;;;30.07;9.93;;;8.20;99.90;;;;;;5100423;28;20031;-70
2023/12/09 00:54:29;;;;;;;25.17;9.33;;;8.10;99.90;;;;;;5104617;28;20028;-70
2023/12/09 00:56:54;;;;;;;34.13;11.57;;;8.10;99.90;;;;;;5096546;28;20106;-70
2023/12/09 00:59:20;;;;;;;36.13;11.73;;;8.10;99.90;;;;;;5097879;28;20074;-70
2023/12/09 01:01:45;;;;;;;32.93;9.83;;;8.10;99.90;;;;;;5103016;28;20024;-70
2023/12/09 01:04:11;;;;;;;28.27;10.67;;;8.10;99.90;;;;;;5096039;28;20032;-70
2023/12/09 01:06:36;;;;;;;28.27;10.80;;;8.10;99.90;;;;;;5103049;28;20024;-70
2023/12/09 01:09:02;;;;;;;24.93;10.13;;;8.10;99.90;;;;;;5103414;28;20026;-70
2023/12/09 01:11:28;;;;;;;34.43;9.93;;;8.10;99.90;;;;;;5102160;28;20028;-70
2023/12/09 01:13:53;;;;;;;31.77;10.40;;;8.00;99.90;;;;;;5102484;28;20047;-70
2023/12/09 01:16:19;;;;;;;29.63;10.53;;;8.00;99.90;;;;;;5091283;28;20537;-70
2023/12/09 01:18:44;;;;;;;30.27;9.17;;;8.00;99.90;;;;;;5101114;28;20024;-70
2023/12/09 01:21:10;;;;;;;37.27;10.07;;;8.00;99.90;;;;;;5100414;28;20554;-70
2023/12/09 01:23:35;;;;;;;29.37;10.30;;;8.00;99.90;;;;;;5101745;28;20028;-70
2023/12/09 01:26:01;;;;;;;30.53;9.50;;;7.90;99.90;;;;;;5099201;28;20055;-70
2023/12/09 01:28:27;;;;;;;24.07;10.47;;;7.90;99.90;;;;;;5102804;28;20498;-70
2023/12/09 01:30:53;;;;;;;34.93;10.87;;;7.90;99.90;;;;;;5090870;28;20020;-70
2023/12/09 01:33:18;;;;;;;26.10;9.23;;;7.90;99.90;;;;;;5102964;28;20052;-70
2023/12/09 01:35:44;;;;;;;31.50;10.00;;;7.80;99.90;;;;;;5099852;28;20016;-70
2023/12/09 01:38:09;;;;;;;28.27;10.37;;;7.80;99.90;;;;;;5096729;28;20039;-70
2023/12/09 01:40:35;;;;;;;31.10;9.70;;;7.80;99.90;;;;;;5097252;28;20078;-70
2023/12/09 01:43:01;;;;;;;33.57;13.07;;;7.80;99.90;;;;;;5101413;28;20020;-70
2023/12/09 01:45:26;;;;;;;37.43;12.90;;;7.80;99.90;;;;;;5100262;28;20073;-70
2023/12/09 01:47:52;;;;;;;25.97;10.07;;;7.80;99.90;;;;;;5103450;28;20433;-70
2023/12/09 01:50:18;;;;;;;32.80;10.57;;;7.80;99.90;;;;;;5102832;28;20020;-70
2023/12/09 01:52:47;;;;;;;25.37;10.63;;;7.80;99.90;;;;;;5100442;28;20382;-70
2023/12/09 01:55:13;;;;;;;27.67;8.87;;;7.80;99.90;;;;;;5093745;28;20021;-70
2023/12/09 01:57:39;;;;;;;25.13;9.93;;;7.80;99.90;;;;;;5100630;28;20032;-70
2023/12/09 02:00:06;;;;;;;30.20;10.53;;;7.80;99.90;;;;;;5099817;28;20039;-70
2023/12/09 02:02:31;;;;;;;35.73;11.20;;;7.80;99.90;;;;;;5103604;28;20026;-70
2023/12/09 02:04:59;;;;;;;32.27;11.03;;;7.70;99.90;;;;;;5099645;28;20111;-70
2023/12/09 02:07:24;;;;;;;27.40;10.53;;;7.70;99.90;;;;;;5101789;28;20081;-70
2023/12/09 02:09:50;;;;;;;26.40;10.03;;;7.70;99.90;;;;;;5099712;28;20020;-70
2023/12/09 02:12:34;;;;;;;26.37;11.13;;;7.70;99.90;;;;;;5092709;27;20487;-70
2023/12/09 02:15:11;;;;;;;34.00;12.48;;;7.70;99.90;;;;;;5096194;28;20028;-70
2023/12/09 02:17:43;;;;;;;37.53;12.07;;;7.70;99.90;;;;;;5102741;28;20097;-70
2023/12/09 02:20:11;;;;;;;39.13;13.07;;;7.80;99.90;;;;;;5099303;28;20085;-70
2023/12/09 02:22:36;;;;;;;30.63;11.97;;;7.80;99.90;;;;;;5095382;28;20024;-70
2023/12/09 02:25:02;;;;;;;36.47;12.30;;;7.80;99.90;;;;;;5095482;28;20032;-70
2023/12/09 02:27:35;;;;;;;35.17;11.00;;;7.80;99.90;;;;;;5099399;28;20101;-70
2023/12/09 02:30:24;;;;;;;21.08;9.25;;;7.80;99.90;;;;;;5100172;28;20459;-70
2023/12/09 02:32:53;;;;;;;32.70;11.17;;;7.80;99.90;;;;;;5098954;28;20026;-70
2023/12/09 02:35:19;;;;;;;29.60;11.33;;;7.80;99.90;;;;;;5100580;28;20459;-70
2023/12/09 02:37:46;;;;;;;30.53;11.40;;;7.80;99.90;;;;;;5098895;28;20344;-70
2023/12/09 02:40:14;;;;;;;34.90;11.80;;;7.70;99.90;;;;;;5099334;28;20372;-70
2023/12/09 02:42:41;;;;;;;35.13;11.67;;;7.60;99.90;;;;;;5100905;28;20583;-70
2023/12/09 02:45:07;;;;;;;29.73;11.17;;;7.60;99.90;;;;;;5100882;28;20066;-70
2023/12/09 02:47:33;;;;;;;23.80;9.53;;;7.60;99.90;;;;;;5095938;28;20043;-70
2023/12/09 02:49:58;;;;;;;30.97;10.70;;;7.60;99.90;;;;;;5100281;28;20027;-70
2023/12/09 02:52:24;;;;;;;28.07;11.97;;;7.60;99.90;;;;;;5095857;28;20016;-70
2023/12/09 02:54:50;;;;;;;32.13;11.10;;;7.60;99.90;;;;;;5099970;28;20068;-70
2023/12/09 02:57:16;;;;;;;25.43;10.97;;;7.50;99.90;;;;;;5098969;28;20027;-70
2023/12/09 02:59:41;;;;;;;34.63;12.80;;;7.50;99.90;;;;;;5100583;27;20020;-70
2023/12/09 03:02:07;;;;;;;34.57;10.67;;;7.50;99.90;;;;;;5095650;28;20031;-70
2023/12/09 03:04:34;;;;;;;26.70;11.27;;;7.50;99.90;;;;;;5097767;28;20111;-70
2023/12/09 03:06:59;;;;;;;27.93;10.37;;;7.50;99.90;;;;;;5086067;28;20050;-70
2023/12/09 03:09:25;;;;;;;35.17;9.93;;;7.40;99.90;;;;;;5099527;28;20483;-70
2023/12/09 03:11:51;;;;;;;30.83;10.77;;;7.40;99.90;;;;;;5095078;28;20020;-70
2023/12/09 03:14:16;;;;;;;31.13;10.47;;;7.40;99.90;;;;;;5096512;28;20111;-70
2023/12/09 03:16:42;;;;;;;32.30;11.30;;;7.30;99.90;;;;;;5096937;28;20031;-70
2023/12/09 03:19:07;;;;;;;25.47;10.03;;;7.30;99.90;;;;;;5095858;28;20024;-70
2023/12/09 03:21:33;;;;;;;35.73;11.80;;;7.30;99.90;;;;;;5092989;28;20067;-70
2023/12/09 03:23:58;;;;;;;24.87;10.37;;;7.20;99.90;;;;;;5097871;28;20024;-70
2023/12/09 03:26:25;;;;;;;29.83;11.63;;;7.20;99.90;;;;;;5099189;28;20051;-70
2023/12/09 03:28:51;;;;;;;27.60;9.70;;;7.20;99.90;;;;;;5097045;28;20050;-70
2023/12/09 03:31:17;;;;;;;35.07;10.53;;;7.20;99.90;;;;;;5096999;28;20350;-70
2023/12/09 03:33:43;;;;;;;28.30;10.70;;;7.20;99.90;;;;;;5096027;28;20023;-70
2023/12/09 03:36:11;;;;;;;21.33;8.77;;;7.10;99.90;;;;;;5095177;28;20097;-70
2023/12/09 03:38:36;;;;;;;30.63;11.33;;;7.10;99.90;;;;;;5093289;28;20016;-70
2023/12/09 03:41:05;;;;;;;28.93;9.37;;;7.10;99.90;;;;;;5084700;28;20029;-70
2023/12/09 03:43:31;;;;;;;31.23;11.37;;;7.10;99.90;;;;;;5098550;28;20557;-70
2023/12/09 03:45:58;;;;;;;29.47;10.40;;;7.10;99.90;;;;;;5099476;28;20399;-70
2023/12/09 03:48:24;;;;;;;20.70;9.13;;;7.10;99.90;;;;;;5097708;28;20027;-70
2023/12/09 03:50:49;;;;;;;28.30;10.10;;;7.10;99.90;;;;;;5101276;28;20028;-70
2023/12/09 03:53:15;;;;;;;38.57;10.10;;;7.10;99.90;;;;;;5100419;28;20027;-70
2023/12/09 03:55:40;;;;;;;24.20;9.13;;;7.10;99.90;;;;;;5094287;28;20072;-70
2023/12/09 03:58:06;;;;;;;29.30;9.60;;;7.00;99.90;;;;;;5098707;28;20024;-70
2023/12/09 04:00:32;;;;;;;29.47;9.73;;;7.00;99.90;;;;;;5100616;28;20043;-70
2023/12/09 04:02:57;;;;;;;31.17;10.17;;;7.10;99.90;;;;;;5097747;28;20138;-70
2023/12/09 04:05:23;;;;;;;31.60;10.23;;;7.10;99.90;;;;;;5093189;28;20035;-70
2023/12/09 04:07:49;;;;;;;31.63;9.80;;;7.10;99.90;;;;;;5097066;28;20032;-70
2023/12/09 04:10:14;;;;;;;28.33;10.00;;;7.10;99.90;;;;;;5094757;28;20024;-70
2023/12/09 04:12:40;;;;;;;28.90;10.83;;;7.10;99.90;;;;;;5099570;28;20020;-70
2023/12/09 04:15:07;;;;;;;25.83;9.47;;;7.10;99.90;;;;;;5095706;28;20107;-70
2023/12/09 04:17:32;;;;;;;31.67;9.43;;;7.20;99.90;;;;;;5099334;28;20030;-70
2023/12/09 04:19:58;;;;;;;28.87;9.97;;;7.20;99.90;;;;;;5099294;28;20036;-70
2023/12/09 04:22:23;;;;;;;28.50;9.30;;;7.30;99.90;;;;;;5095808;28;20027;-70
2023/12/09 04:24:49;;;;;;;28.60;10.30;;;7.30;99.90;;;;;;5093966;28;20400;-70
2023/12/09 04:27:15;;;;;;;24.50;9.03;;;7.20;99.90;;;;;;5093066;28;20040;-70
2023/12/09 04:29:41;;;;;;;26.20;9.03;;;7.20;99.90;;;;;;5091612;28;20046;-70
2023/12/09 04:32:06;;;;;;;23.47;9.00;;;7.20;99.90;;;;;;5099071;28;20024;-70
2023/12/09 04:34:32;;;;;;;29.87;9.10;;;7.20;99.90;;;;;;5098320;28;20015;-70
2023/12/09 04:36:58;;;;;;;23.77;7.87;;;7.20;99.90;;;;;;5097910;28;20054;-70
2023/12/09 04:39:34;;;;;;;27.57;8.60;;;7.10;99.90;;;;;;5104340;28;20028;-76
2023/12/09 04:42:00;;;;;;;21.00;8.10;;;7.10;99.90;;;;;;5097523;28;20121;-76
2023/12/09 04:44:26;;;;;;;29.67;8.30;;;7.10;99.90;;;;;;5104256;28;20040;-76
2023/12/09 04:46:55;;;;;;;22.30;8.27;;;7.10;99.90;;;;;;5093251;28;20032;-76
2023/12/09 04:49:35;;;;;;;26.07;8.40;;;7.10;99.90;;;;;;5102816;28;20040;-76
2023/12/09 04:52:14;;;;;;;24.87;8.33;;;7.10;99.90;;;;;;5103257;28;20043;-76
2023/12/09 04:54:44;;;;;;;19.77;7.37;;;7.10;99.90;;;;;;5107776;28;20048;-76
2023/12/09 04:57:12;;;;;;;20.10;8.50;;;7.00;99.90;;;;;;5108027;28;20059;-76
2023/12/09 04:59:54;;;;;;;28.73;8.70;;;7.10;99.90;;;;;;5104524;28;20062;-76
2023/12/09 05:02:24;;;;;;;29.43;8.87;;;7.00;99.90;;;;;;5099215;28;20036;-76
2023/12/09 05:04:56;;;;;;;28.60;7.67;;;7.00;99.90;;;;;;5108624;28;20035;-76
2023/12/09 05:07:28;;;;;;;30.00;8.43;;;7.00;99.90;;;;;;5106071;28;20036;-76
2023/12/09 05:09:57;;;;;;;35.30;8.47;;;7.00;99.90;;;;;;5095003;28;20122;-76
2023/12/09 05:12:26;;;;;;;27.60;8.93;;;7.00;99.90;;;;;;5104967;28;20028;-76
2023/12/09 05:14:52;;;;;;;31.37;9.27;;;7.00;99.90;;;;;;5083690;28;20020;-76
2023/12/09 05:17:17;;;;;;;24.17;7.67;;;7.00;99.90;;;;;;5107067;28;20024;-76
2023/12/09 05:19:43;;;;;;;29.37;8.27;;;7.00;99.90;;;;;;5109208;28;20471;-76
2023/12/09 05:22:08;;;;;;;29.53;8.53;;;7.00;99.90;;;;;;5106699;28;20044;-76
2023/12/09 05:24:34;;;;;;;23.97;7.60;;;7.00;99.90;;;;;;5084203;28;20439;-76
2023/12/09 05:27:00;;;;;;;30.73;8.47;;;7.00;99.90;;;;;;5103906;28;20056;-76
2023/12/09 05:29:35;;;;;;;26.03;8.13;;;7.00;99.90;;;;;;5105818;28;20143;-76
2023/12/09 05:32:27;;;;;;;23.23;8.03;;;7.00;99.90;;;;;;5101085;28;20059;-77
2023/12/09 05:35:05;;;;;;;25.03;8.20;;;7.10;99.90;;;;;;5100375;28;20081;-76
2023/12/09 05:37:32;;;;;;;28.40;8.27;;;7.00;99.90;;;;;;5099918;28;20023;-76
2023/12/09 05:39:59;;;;;;;36.23;8.53;;;7.00;99.90;;;;;;5094362;28;20032;-76
2023/12/09 05:42:27;;;;;;;25.60;7.90;;;7.00;99.90;;;;;;5100754;28;20482;-76
2023/12/09 05:45:13;;;;;;;23.50;7.17;;;7.00;99.90;;;;;;5084116;28;20060;-76
2023/12/09 05:47:38;;;;;;;17.73;7.13;;;7.00;99.90;;;;;;5094566;28;20036;-76
2023/12/09 05:50:10;;;;;;;23.93;8.07;;;7.00;99.90;;;;;;5108171;28;20039;-76
2023/12/09 05:52:37;;;;;;;20.83;6.67;;;6.90;99.90;;;;;;5105351;28;20823;-76
2023/12/09 05:55:04;;;;;;;21.03;6.60;;;7.00;99.90;;;;;;5101279;28;20051;-76
2023/12/09 05:57:32;;;;;;;18.60;5.77;;;7.00;99.90;;;;;;5101525;28;20040;-76
2023/12/09 05:59:58;;;;;;;17.67;6.30;;;7.00;99.90;;;;;;5098547;28;20032;-77
2023/12/09 06:02:25;;;;;;;27.53;6.73;;;7.00;99.90;;;;;;5107089;28;20455;-76
2023/12/09 06:04:52;;;;;;;25.70;7.93;;;7.00;99.90;;;;;;5111566;28;20273;-76
2023/12/09 06:07:17;;;;;;;24.67;7.23;;;7.00;99.90;;;;;;5104394;28;20062;-76
2023/12/09 06:09:43;;;;;;;24.63;7.17;;;7.00;99.90;;;;;;5103518;28;20020;-77
2023/12/09 06:12:12;;;;;;;23.93;7.17;;;7.00;99.90;;;;;;5087132;28;20028;-76
2023/12/09 06:14:46;;;;;;;23.37;6.80;;;7.00;99.90;;;;;;5086644;28;20055;-76
2023/12/09 06:17:17;;;;;;;22.93;7.60;;;7.00;99.90;;;;;;5097803;28;20039;-76
2023/12/09 06:19:44;;;;;;;27.73;7.70;;;7.00;99.90;;;;;;5100204;28;20421;-76
2023/12/09 06:22:11;;;;;;;25.07;6.83;;;7.00;99.90;;;;;;5104555;28;20050;-77
2023/12/09 06:24:37;;;;;;;22.87;7.40;;;7.00;99.90;;;;;;5108501;28;20040;-76
2023/12/09 06:27:25;;;;;;;32.37;6.83;;;7.00;99.90;;;;;;5110664;28;20064;-76
2023/12/09 06:30:17;;;;;;;31.00;6.83;;;7.00;99.90;;;;;;5105425;28;20021;-76
2023/12/09 06:32:48;;;;;;;17.23;5.33;;;7.00;99.90;;;;;;5110063;28;20023;-76
2023/12/09 06:35:23;;;;;;;20.30;5.53;;;7.00;99.90;;;;;;5108674;28;20028;-77
2023/12/09 06:37:56;;;;;;;25.53;6.63;;;7.00;99.90;;;;;;5104439;28;20024;-77
2023/12/09 06:40:24;;;;;;;17.23;6.13;;;7.00;99.90;;;;;;5097489;28;20032;-76
2023/12/09 06:42:49;;;;;;;20.00;5.90;;;7.00;99.90;;;;;;5107677;28;20111;-77
2023/12/09 06:45:22;;;;;;;28.23;7.00;;;7.10;99.90;;;;;;5106797;28;20024;-76
2023/12/09 06:48:03;;;;;;;21.13;5.93;;;7.00;99.90;;;;;;5108278;28;20495;-77
2023/12/09 06:50:33;;;;;;;25.70;6.50;;;7.10;99.90;;;;;;5103909;28;20031;-77
2023/12/09 06:53:03;;;;;;;31.87;5.80;;;7.10;99.90;;;;;;5099055;28;20028;-76
2023/12/09 06:55:29;;;;;;;21.90;6.57;;;7.10;99.90;;;;;;5068420;28;20036;-77
2023/12/09 06:57:54;;;;;;;26.03;6.93;;;7.20;99.90;;;;;;5083276;28;20033;-76
2023/12/09 07:00:25;;;;;;;21.33;5.57;;;7.20;99.90;;;;;;5090090;28;20030;-76
2023/12/09 07:02:51;;;;;;;16.77;6.23;;;7.20;99.90;;;;;;5101091;28;20108;-76
2023/12/09 07:05:17;;;;;;;20.47;6.87;;;7.20;99.90;;;;;;5083218;28;20438;-76
2023/12/09 07:07:42;;;;;;;17.80;6.13;;;7.20;99.90;;;;;;5104300;28;20031;-76
2023/12/09 07:10:08;;;;;;;20.37;5.53;;;7.20;99.90;;;;;;5099360;28;20019;-76
2023/12/09 07:12:42;;;;;;;23.87;5.37;;;7.20;99.90;;;;;;5102521;28;20073;-76
2023/12/09 07:15:08;;;;;;;;;;;7.20;99.90;;;;;;5105618;28;20050;-76
2023/12/09 07:17:39;;;;;;;20.83;5.87;;;7.20;99.90;;;;;;5101764;28;19908;-76
2023/12/09 07:20:07;;;;;;;21.73;6.97;;;7.20;99.90;;;;;;5099908;28;20036;-76
2023/12/09 07:22:33;;;;;;;19.77;6.27;;;7.30;99.90;;;;;;5101442;28;20027;-70
2023/12/09 07:24:58;;;;;;;17.00;5.57;;;7.30;99.90;;;;;;5095689;28;20035;-70
2023/12/09 07:27:24;;;;;;;23.00;6.83;;;7.30;99.90;;;;;;5099398;28;20126;-70
2023/12/09 07:29:49;;;;;;;21.57;6.03;;;7.30;99.90;;;;;;5094236;28;20077;-70
2023/12/09 07:32:15;;;;;;;18.83;5.93;;;7.30;99.90;;;;;;5096148;28;20592;-70
2023/12/09 07:34:41;;;;;;;22.13;6.73;;;7.40;99.90;;;;;;5103747;28;20019;-70
2023/12/09 07:37:07;;;;;;;17.87;6.37;;;7.40;99.90;;;;;;5095384;28;20039;-70
2023/12/09 07:39:32;;;;;;;21.33;4.97;;;7.40;99.90;;;;;;5099995;28;20039;-70
2023/12/09 07:41:58;;;;;;;21.97;5.80;;;7.40;99.90;;;;;;5100211;28;20043;-70
2023/12/09 07:44:23;;;;;;;21.17;5.77;;;7.40;99.90;;;;;;5095954;28;20368;-70
2023/12/09 07:46:50;;;;;;;17.73;5.47;;;7.40;99.90;;;;;;5098838;28;20036;-70
2023/12/09 07:49:16;;;;;;;18.47;4.80;;;7.40;99.90;;;;;;5096628;28;20020;-70
2023/12/09 07:51:41;;;;;;;17.10;6.40;;;7.40;99.90;;;;;;5095161;28;20073;-70
2023/12/09 07:54:07;;;;;;;19.40;5.50;;;7.40;99.90;;;;;;5092370;28;20111;-70
2023/12/09 07:56:32;;;;;;;18.23;4.77;;;7.50;99.90;;;;;;5096218;28;20031;-70
2023/12/09 07:58:58;;;;;;;19.30;5.03;;;7.50;99.90;;;;;;5094456;28;20036;-70
2023/12/09 08:01:23;;;;;;;18.70;4.83;;;7.50;99.90;;;;;;5094890;28;20028;-71
2023/12/09 08:03:49;;;;;;;15.80;5.20;;;7.50;99.90;;;;;;5092639;28;20027;-71
2023/12/09 08:06:14;;;;;;;19.07;4.90;;;7.60;99.90;;;;;;5097255;28;20028;-70
2023/12/09 08:08:40;;;;;;;22.83;4.93;;;7.60;99.90;;;;;;5100789;28;20015;-71
2023/12/09 08:11:06;;;;;;;19.07;5.13;;;7.60;99.90;;;;;;5097715;28;20055;-71
2023/12/09 08:13:31;;;;;;;12.20;4.00;;;7.70;99.90;;;;;;5091483;28;20021;-71
2023/12/09 08:15:57;;;;;;;16.20;4.53;;;7.70;99.90;;;;;;5092810;28;20056;-71
2023/12/09 08:18:23;;;;;;;16.50;5.73;;;7.80;99.90;;;;;;5090345;28;20028;-70
2023/12/09 08:20:48;;;;;;;23.37;5.73;;;7.70;99.90;;;;;;5100024;28;20024;-70
2023/12/09 08:23:14;;;;;;;19.87;5.37;;;7.70;99.90;;;;;;5098700;28;20032;-70
2023/12/09 08:25:42;;;;;;;24.77;4.87;;;7.80;99.90;;;;;;5095304;28;20031;-70
2023/12/09 08:28:09;;;;;;;17.73;4.87;;;7.80;99.90;;;;;;5102087;28;20051;-71
2023/12/09 08:30:34;;;;;;;16.03;4.40;;;7.80;99.90;;;;;;5104173;28;20105;-71
2023/12/09 08:33:00;;;;;;;23.63;4.73;;;7.80;99.90;;;;;;5101048;28;20040;-71
2023/12/09 08:35:26;;;;;;;11.33;4.20;;;7.90;99.90;;;;;;5097371;28;20471;-71
2023/12/09 08:37:51;;;;;;;12.00;3.93;;;7.90;99.90;;;;;;5101292;28;20021;-71
2023/12/09 08:40:17;;;;;;;19.53;5.13;;;7.90;99.90;;;;;;5093371;28;20023;-71
2023/12/09 08:42:44;;;;;;;16.57;4.77;;;7.90;99.90;;;;;;5103034;28;20024;-71
2023/12/09 08:45:11;;;;;;;17.07;3.73;;;8.00;99.90;;;;;;5103011;28;20066;-70
2023/12/09 08:47:38;;;;;;;15.07;4.20;;;8.00;99.90;;;;;;5094444;28;20123;-71
2023/12/09 08:50:04;;;;;;;20.80;4.63;;;8.00;99.90;;;;;;5102476;28;20134;-71
2023/12/09 08:52:31;;;;;;;18.77;4.60;;;8.10;99.90;;;;;;5100581;28;20030;-71
2023/12/09 08:54:57;;;;;;;16.33;4.03;;;8.10;99.90;;;;;;5092846;28;20036;-71
2023/12/09 08:57:23;;;;;;;17.93;4.03;;;8.10;99.90;;;;;;5104059;28;20118;-71
2023/12/09 08:59:49;;;;;;;16.87;4.50;;;8.20;99.90;;;;;;5103066;28;20016;-70
2023/12/09 09:02:14;;;;;;;9.37;3.80;;;8.20;99.90;;;;;;5095601;28;20020;-70
2023/12/09 09:04:40;;;;;;;12.53;3.43;;;8.20;99.90;;;;;;5104554;28;20023;-70
2023/12/09 09:07:06;;;;;;;17.00;4.60;;;8.20;99.90;;;;;;5097414;28;20050;-76
2023/12/09 09:09:32;;;;;;;18.03;4.27;;;8.20;99.90;;;;;;5097012;28;20050;-75
2023/12/09 09:11:57;;;;;;;12.97;3.77;;;8.20;99.90;;;;;;5096087;28;20043;-75
2023/12/09 09:14:23;;;;;;;12.83;4.47;;;8.30;99.90;;;;;;5098704;28;20123;-77
2023/12/09 09:16:49;;;;;;;17.87;4.20;;;8.30;99.90;;;;;;5091170;28;20024;-75
2023/12/09 09:19:14;;;;;;;15.70;4.33;;;8.30;99.90;;;;;;5102795;28;20020;-76
2023/12/09 09:21:40;;;;;;;17.37;4.73;;;8.30;99.90;;;;;;5083958;28;20030;-76
2023/12/09 09:24:07;;;;;;;10.47;3.77;;;8.30;99.90;;;;;;5089620;28;20119;-76
2023/12/09 09:26:33;;;;;;;11.80;3.43;;;8.40;99.90;;;;;;5103132;28;20401;-76
2023/12/09 09:28:59;;;;;;;11.73;4.30;;;8.40;99.90;;;;;;5100384;28;20103;-76
2023/12/09 09:31:25;;;;;;;17.97;4.03;;;8.40;99.90;;;;;;5098066;28;20595;-76
2023/12/09 09:33:50;;;;;;;13.63;3.57;;;8.40;99.90;;;;;;5098663;28;20020;-76
2023/12/09 09:36:19;;;;;;;13.43;3.50;;;8.40;99.90;;;;;;5095506;28;20507;-76
2023/12/09 09:38:44;;;;;;;14.33;3.27;;;8.40;99.90;;;;;;5103647;28;20047;-77
2023/12/09 09:41:17;;;;;;;13.10;3.53;;;8.50;99.90;;;;;;5098598;28;20020;-75
2023/12/09 09:43:47;;;;;;;14.13;3.57;;;8.50;99.90;;;;;;5087833;28;20031;-75
2023/12/09 09:46:14;;;;;;;15.67;2.80;;;8.50;99.90;;;;;;5097067;28;20027;-75
2023/12/09 09:48:40;;;;;;;17.70;3.50;;;8.50;99.90;;;;;;5088847;28;20036;-75
2023/12/09 09:51:08;;;;;;;9.87;3.00;;;8.50;99.90;;;;;;5092816;28;20031;-75
2023/12/09 09:53:54;;;;;;;11.17;3.17;;;8.60;99.90;;;;;;5097080;28;20048;-75
2023/12/09 09:56:21;;;;;;;15.03;3.87;;;8.60;99.90;;;;;;5091289;28;20084;-75
2023/12/09 09:58:46;;;;;;;15.45;2.97;;;8.60;99.90;;;;;;5094620;28;20031;-75
2023/12/09 10:01:14;;;;;;;14.47;3.13;;;8.60;99.90;;;;;;5095712;28;20024;-74
2023/12/09 10:03:40;;;;;;;13.13;3.53;;;8.70;99.90;;;;;;5091315;28;20035;-78
2023/12/09 10:06:06;;;;;;;11.97;2.63;;;8.70;99.90;;;;;;5096360;28;20498;-72
2023/12/09 10:08:31;;;;;;;15.83;3.13;;;8.70;99.90;;;;;;5099587;28;20093;-71
2023/12/09 10:10:57;;;;;;;14.23;3.93;;;8.80;99.90;;;;;;5094504;28;20020;-71
2023/12/09 10:13:23;;;;;;;16.85;3.72;;;8.80;99.90;;;;;;5093418;28;20031;-71
2023/12/09 10:15:49;;;;;;;12.50;4.17;;;8.90;99.90;;;;;;5097059;28;20065;-71
2023/12/09 10:18:14;;;;;;;14.83;3.10;;;8.90;99.90;;;;;;5097410;28;20479;-71
2023/12/09 10:20:40;;;;;;;14.77;3.07;;;9.00;99.90;;;;;;5099285;28;20094;-71
2023/12/09 10:23:07;;;;;;;9.53;3.20;;;9.00;99.90;;;;;;5100411;28;20032;-71
2023/12/09 10:25:33;;;;;;;9.97;2.80;;;9.00;99.90;;;;;;5097474;28;20021;-71
2023/12/09 10:27:59;;;;;;;11.73;3.67;;;9.10;99.90;;;;;;5094080;28;20062;-71
2023/12/09 10:30:24;;;;;;;11.33;2.60;;;9.10;99.90;;;;;;5099065;28;20030;-72
2023/12/09 10:32:51;;;;;;;11.20;3.50;;;9.10;99.90;;;;;;5101511;28;20023;-72
2023/12/09 10:35:19;;;;;;;9.70;2.60;;;9.10;99.90;;;;;;5101911;28;20024;-71
2023/12/09 10:37:48;;;;;;;13.47;3.40;;;9.20;99.90;;;;;;5099406;28;20028;-71
2023/12/09 10:40:14;;;;;;;15.47;3.10;;;9.20;99.90;;;;;;5100693;28;20027;-71
2023/12/09 10:42:40;;;;;;;9.38;3.20;;;9.20;99.90;;;;;;5101795;28;20023;-71
2023/12/09 10:45:07;;;;;;;8.40;2.47;;;9.20;99.90;;;;;;5098482;28;20030;-71
2023/12/09 10:47:34;;;;;;;12.47;2.80;;;9.20;99.90;;;;;;5094084;28;20028;-71
2023/12/09 10:50:00;;;;;;;8.87;2.03;;;9.30;99.90;;;;;;5098846;28;20031;-71
2023/12/09 10:52:26;;;;;;;8.43;2.10;;;9.30;99.90;;;;;;5098424;28;20103;-71
2023/12/09 10:54:52;;;;;;;12.83;2.57;;;9.30;99.90;;;;;;5100982;28;20100;-71
2023/12/09 10:57:18;;;;;;;11.73;3.70;;;9.40;99.90;;;;;;5096493;28;20031;-71
2023/12/09 10:59:44;;;;;;;8.10;2.40;;;9.40;99.90;;;;;;5101872;28;20051;-71
2023/12/09 11:02:11;;;;;;;11.05;2.58;;;9.50;99.90;;;;;;5095387;28;20059;-71
2023/12/09 11:04:36;;;;;;;10.32;2.17;;;9.40;99.90;;;;;;5099742;28;20378;-71
2023/12/09 11:07:04;;;;;;;10.97;2.10;;;9.50;99.90;;;;;;5088407;28;20065;-75
2023/12/09 11:09:31;;;;;;;9.02;1.90;;;9.50;99.90;;;;;;5097832;28;20016;-75
2023/12/09 11:11:58;;;;;;;10.07;2.10;;;9.50;99.90;;;;;;5097959;28;20016;-75
2023/12/09 11:14:27;;;;;;;7.43;2.40;;;9.40;99.90;;;;;;5093371;28;20030;-76
2023/12/09 11:16:53;;;;;;;11.50;2.53;;;9.50;99.90;;;;;;5093406;28;20023;-76
2023/12/09 11:19:22;;;;;;;9.45;2.22;;;9.50;99.90;;;;;;5097712;28;20047;-75
2023/12/09 11:21:48;;;;;;;13.85;2.38;;;9.40;99.90;;;;;;5100815;28;20413;-75
2023/12/09 11:24:15;;;;;;;8.83;1.87;;;9.40;99.90;;;;;;5100045;28;20661;-75
2023/12/09 11:26:45;;;;;;;9.93;1.83;;;9.40;99.90;;;;;;5097413;28;20044;-75
2023/12/09 11:29:12;;;;;;;7.97;2.05;;;9.40;99.90;;;;;;5099862;28;20024;-75
2023/12/09 11:31:42;;;;;;;9.02;3.15;;;9.40;99.90;;;;;;5088713;28;20024;-75
2023/12/09 11:34:11;;;;;;;8.43;2.25;;;9.40;99.90;;;;;;5095793;28;20022;-75
2023/12/09 11:36:41;;;;;;;9.10;2.70;;;9.40;99.90;;;;;;5100312;28;20027;-75
2023/12/09 11:39:09;;;;;;;12.43;2.58;;;9.40;99.90;;;;;;5103192;28;20031;-76
2023/12/09 11:41:36;;;;;;;10.48;1.50;;;9.40;99.90;;;;;;5098438;28;20020;-75
2023/12/09 11:44:03;;;;;;;15.18;2.28;;;9.40;99.90;;;;;;5099946;28;20055;-75
2023/12/09 11:46:33;;;;;;;7.57;1.92;;;9.30;99.90;;;;;;5092488;28;20394;-75
2023/12/09 11:49:00;;;;;;;12.30;2.95;;;9.30;99.90;;;;;;5088415;28;20067;-75
2023/12/09 11:51:29;;;;;;;7.57;1.90;;;9.40;99.90;;;;;;5101212;28;20020;-75
2023/12/09 11:53:55;;;;;;;17.17;2.43;;;9.40;99.90;;;;;;5094960;28;20032;-75
2023/12/09 11:56:21;;;;;;;9.20;2.22;;;9.30;99.90;;;;;;5094613;28;20023;-75
2023/12/09 11:58:46;;;;;;;7.47;2.38;;;9.30;99.90;;;;;;5100260;28;20020;-75
2023/12/09 12:01:12;;;;;;;9.40;2.15;;;9.40;99.90;;;;;;5100665;28;20067;-74
2023/12/09 12:03:37;;;;;;;13.33;2.80;;;9.30;99.90;;;;;;5098590;28;20016;-75
2023/12/09 12:06:04;;;;;;;9.75;2.70;;;9.30;99.90;;;;;;5097522;28;20046;-75
2023/12/09 12:08:29;;;;;;;8.00;2.33;;;9.40;99.90;;;;;;5098566;28;20028;-75
2023/12/09 12:10:55;;;;;;;13.40;2.92;;;9.40;99.90;;;;;;5102302;28;20028;-75
2023/12/09 12:13:21;;;;;;;13.35;2.00;;;9.40;99.90;;;;;;5098946;28;20019;-74
2023/12/09 12:15:48;;;;;;;12.60;2.42;;;9.40;99.90;;;;;;5100056;28;20020;-75
2023/12/09 12:18:14;;;;;;;14.65;2.90;;;9.50;99.90;;;;;;5100754;28;20039;-72
2023/12/09 12:20:39;;;;;;;9.73;2.78;;;9.50;99.90;;;;;;5104968;28;20483;-72
2023/12/09 12:23:05;;;;;;;9.18;2.35;;;9.60;99.90;;;;;;5094082;28;20031;-72
2023/12/09 12:25:30;;;;;;;7.88;2.45;;;9.60;99.90;;;;;;5102795;28;20020;-73
2023/12/09 12:27:56;;;;;;;13.95;3.08;;;9.60;99.90;;;;;;5095927;28;20040;-71
2023/12/09 12:30:23;;;;;;;6.75;2.50;;;9.70;99.90;;;;;;5101527;28;20540;-72
2023/12/09 12:32:55;;;;;;;10.40;2.45;;;9.70;99.90;;;;;;5103481;28;20023;-71
2023/12/09 12:35:22;;;;;;;13.53;2.37;;;9.60;99.90;;;;;;5101380;28;20032;-72
2023/12/09 12:37:48;;;;;;;13.75;2.63;;;9.60;99.90;;;;;;5100485;28;20027;-72
2023/12/09 12:40:14;;;;;;;7.57;1.83;;;9.50;99.90;;;;;;5096028;28;20081;-72
2023/12/09 12:42:42;;;;;;;11.48;2.30;;;9.50;99.90;;;;;;5093759;28;20031;-71
2023/12/09 12:45:22;;;;;;;9.07;2.17;;;9.50;99.90;;;;;;5102581;28;20110;-71